Time;durP1;ratioP1;P1;durP2;ratioP2;P2;SDS_P1;SDS_P2;PMS_P1;PMS_P2;Temp;Humidity;BMP_temperature;BMP_pressure;BME280_temperature;BME280_humidity;BME280_pressure;Samples;Min_cycle;Max_cycle;Signal;HPM_P1;HPM_P2
2023/07/13 00:02:11;;;;;;;11.63;3.35;;;;;;;;;;5075166;28;20416;-77
2023/07/13 00:04:37;;;;;;;11.77;3.55;;;;;;;;;;5108601;28;20447;-77
2023/07/13 00:07:03;;;;;;;12.52;3.60;;;16.80;99.90;;;;;;5109182;28;20479;-77
2023/07/13 00:09:29;;;;;;;12.40;3.40;;;;;;;;;;5087765;28;20887;-77
2023/07/13 00:11:57;;;;;;;16.60;4.05;;;16.70;99.90;;;;;;5112697;28;20443;-77
2023/07/13 00:14:25;;;;;;;12.15;3.55;;;16.60;99.90;;;;;;5113858;28;20493;-77
2023/07/13 00:16:51;;;;;;;12.00;3.67;;;16.50;99.90;;;;;;5091431;28;20769;-77
2023/07/13 00:19:17;;;;;;;12.60;3.77;;;16.60;99.90;;;;;;5075847;28;20414;-77
2023/07/13 00:21:43;;;;;;;13.05;3.80;;;;;;;;;;5076530;28;20398;-77
2023/07/13 00:24:15;;;;;;;11.73;3.60;;;16.70;99.90;;;;;;5097188;28;20416;-77
2023/07/13 00:26:44;;;;;;;14.80;4.63;;;;;;;;;;5109346;28;20421;-77
2023/07/13 00:29:10;;;;;;;12.27;3.53;;;16.70;99.90;;;;;;5113190;28;20497;-77
2023/07/13 00:31:36;;;;;;;14.18;3.83;;;16.90;99.90;;;;;;5114696;28;20491;-78
2023/07/13 00:34:03;;;;;;;13.15;4.03;;;17.00;99.90;;;;;;5114667;28;20396;-78
2023/07/13 00:36:30;;;;;;;10.75;3.85;;;16.80;99.90;;;;;;5096969;28;20421;-78
2023/07/13 00:38:57;;;;;;;15.55;3.80;;;;;;;;;;5096826;28;20913;-77
2023/07/13 00:41:22;;;;;;;12.80;4.05;;;16.80;99.90;;;;;;5096059;28;20428;-77
2023/07/13 00:43:48;;;;;;;10.77;3.70;;;16.70;99.90;;;;;;5113148;28;20799;-78
2023/07/13 00:46:21;;;;;;;13.55;4.15;;;16.60;99.90;;;;;;5099568;28;20426;-77
2023/07/13 00:48:48;;;;;;;14.43;4.70;;;;;;;;;;5095859;28;20437;-76
2023/07/13 00:51:18;;;;;;;13.02;3.90;;;16.60;99.90;;;;;;5079158;28;20408;-77
2023/07/13 00:53:44;;;;;;;15.85;4.18;;;;;;;;;;5094338;28;20783;-77
2023/07/13 00:56:11;;;;;;;11.43;4.07;;;;;;;;;;5099559;28;20418;-77
2023/07/13 00:58:37;;;;;;;11.90;4.00;;;;;;;;;;5104897;28;20446;-78
2023/07/13 01:01:03;;;;;;;16.88;4.60;;;16.70;99.90;;;;;;5072082;28;21053;-76
2023/07/13 01:03:29;;;;;;;14.85;5.03;;;;;;;;;;5094498;28;20417;-77
2023/07/13 01:05:55;;;;;;;15.20;4.38;;;;;;;;;;5067186;28;20422;-77
2023/07/13 01:08:22;;;;;;;17.52;4.50;;;;;;;;;;5108498;28;20483;-77
2023/07/13 01:10:53;;;;;;;13.55;4.47;;;16.60;99.90;;;;;;5075996;28;20416;-77
2023/07/13 01:13:19;;;;;;;13.55;4.90;;;;;;;;;;5093276;28;20436;-77
2023/07/13 01:15:49;;;;;;;14.47;4.53;;;;;;;;;;5070262;28;20483;-78
2023/07/13 01:18:19;;;;;;;14.90;4.97;;;16.40;99.90;;;;;;5110535;28;20597;-77
2023/07/13 01:20:55;;;;;;;16.55;5.18;;;16.60;99.90;;;;;;5104638;28;20499;-77
2023/07/13 01:23:22;;;;;;;13.57;4.47;;;;;;;;;;5080578;28;20470;-77
2023/07/13 01:25:48;;;;;;;15.90;4.70;;;16.60;99.90;;;;;;5077807;28;20451;-77
2023/07/13 01:28:15;;;;;;;16.37;4.70;;;;;;;;;;5055433;28;20881;-78
2023/07/13 01:30:41;;;;;;;12.18;4.60;;;16.40;99.90;;;;;;5104394;28;20486;-78
2023/07/13 01:33:09;;;;;;;13.70;4.45;;;;;;;;;;5074709;28;20507;-78
2023/07/13 01:35:35;;;;;;;13.07;4.65;;;16.70;99.90;;;;;;5096234;28;20427;-78
2023/07/13 01:38:02;;;;;;;13.98;4.50;;;16.70;99.90;;;;;;5111917;28;20408;-78
2023/07/13 01:40:29;;;;;;;17.77;5.30;;;;;;;;;;5093332;28;20448;-78
2023/07/13 01:42:55;;;;;;;16.80;4.53;;;16.50;99.90;;;;;;5113759;28;20421;-78
2023/07/13 01:45:21;;;;;;;15.33;4.50;;;;;;;;;;5079541;28;20419;-78
2023/07/13 01:47:47;;;;;;;17.83;4.93;;;;;;;;;;5112558;28;20890;-78
2023/07/13 01:50:13;;;;;;;17.80;5.10;;;;;;;;;;5107083;28;20416;-78
2023/07/13 01:52:39;;;;;;;11.85;4.57;;;16.60;99.90;;;;;;5094893;28;20396;-77
2023/07/13 01:55:05;;;;;;;13.30;4.60;;;;;;;;;;5064939;28;20418;-77
2023/07/13 01:57:32;;;;;;;16.92;5.43;;;;;;;;;;5092879;28;20433;-78
2023/07/13 01:59:58;;;;;;;17.45;5.05;;;;;;;;;;5098604;28;20448;-77
2023/07/13 02:02:24;;;;;;;12.10;4.75;;;;;;;;;;5093357;28;20413;-77
2023/07/13 02:04:50;;;;;;;15.43;4.90;;;;;;;;;;5102604;28;20410;-77
2023/07/13 02:07:16;;;;;;;18.77;5.30;;;;;;;;;;5108737;28;20494;-77
2023/07/13 02:09:42;;;;;;;15.75;4.88;;;;;;;;;;5077660;28;20412;-77
2023/07/13 02:12:08;;;;;;;16.13;4.95;;;;;;;;;;5108130;28;20487;-77
2023/07/13 02:14:34;;;;;;;14.63;4.57;;;;;;;;;;5093146;28;20409;-77
2023/07/13 02:17:00;;;;;;;16.02;4.70;;;16.30;99.90;;;;;;5092066;28;20451;-78
2023/07/13 02:19:26;;;;;;;11.03;4.33;;;;;;;;;;5104029;28;20404;-77
2023/07/13 02:21:52;;;;;;;14.80;5.25;;;;;;;;;;5092540;28;20918;-77
2023/07/13 02:24:20;;;;;;;16.97;4.77;;;;;;;;;;5098310;28;20864;-78
2023/07/13 02:26:47;;;;;;;16.13;5.25;;;;;;;;;;5106768;28;20883;-77
2023/07/13 02:29:13;;;;;;;14.77;4.90;;;;;;;;;;5097044;28;20818;-77
2023/07/13 02:31:39;;;;;;;15.93;5.60;;;;;;;;;;5093692;28;20441;-77
2023/07/13 02:34:06;;;;;;;17.55;5.45;;;;;;;;;;5063714;28;20421;-78
2023/07/13 02:36:32;;;;;;;15.30;5.68;;;;;;;;;;5081386;28;20440;-78
2023/07/13 02:39:02;;;;;;;16.15;4.90;;;15.90;99.90;;;;;;5108958;28;20761;-78
2023/07/13 02:41:28;;;;;;;15.80;5.10;;;15.80;99.90;;;;;;5087360;28;20412;-78
2023/07/13 02:44:02;;;;;;;18.50;5.37;;;;;;;;;;5111190;28;20416;-78
2023/07/13 02:46:29;;;;;;;16.35;5.25;;;;;;;;;;5095388;28;20521;-78
2023/07/13 02:48:55;;;;;;;13.88;5.70;;;;;;;;;;5108434;28;20447;-78
2023/07/13 02:51:21;;;;;;;15.43;5.72;;;;;;;;;;5097615;28;20470;-78
2023/07/13 02:53:47;;;;;;;17.45;5.80;;;;;;;;;;5092177;28;20455;-77
2023/07/13 02:56:13;;;;;;;19.13;5.93;;;;;;;;;;5091555;28;20447;-77
2023/07/13 02:58:39;;;;;;;16.13;5.18;;;;;;;;;;5092207;28;20412;-77
2023/07/13 03:01:10;;;;;;;16.63;5.10;;;15.80;99.90;;;;;;5111916;28;20427;-77
2023/07/13 03:03:36;;;;;;;13.32;5.05;;;;;;;;;;5099589;28;20416;-78
2023/07/13 03:06:05;;;;;;;18.48;5.30;;;;;;;;;;5099201;28;20420;-78
2023/07/13 03:08:31;;;;;;;14.97;4.90;;;;;;;;;;5102260;28;20463;-78
2023/07/13 03:11:05;;;;;;;17.88;4.82;;;15.40;99.90;;;;;;5089188;28;20430;-77
2023/07/13 03:13:31;;;;;;;11.93;4.47;;;;;;;;;;5106889;28;20413;-78
2023/07/13 03:15:58;;;;;;;16.63;4.70;;;;;;;;;;5098741;28;20495;-77
2023/07/13 03:18:24;;;;;;;15.98;4.85;;;;;;;;;;5058561;28;20434;-77
2023/07/13 03:20:51;;;;;;;14.80;4.73;;;;;;;;;;5073023;28;20422;-78
2023/07/13 03:23:17;;;;;;;15.60;4.78;;;;;;;;;;5073304;28;20397;-77
2023/07/13 03:25:44;;;;;;;13.30;4.40;;;;;;;;;;5093613;28;20414;-78
2023/07/13 03:28:11;;;;;;;12.75;4.85;;;;;;;;;;5106652;28;20476;-77
2023/07/13 03:30:37;;;;;;;16.70;4.97;;;;;;;;;;5111610;28;20809;-77
2023/07/13 03:33:03;;;;;;;13.40;4.90;;;;;;;;;;5107734;28;20486;-77
2023/07/13 03:35:29;;;;;;;17.80;4.97;;;;;;;;;;5057384;28;20417;-78
2023/07/13 03:37:56;;;;;;;14.98;4.55;;;;;;;;;;5073045;28;20406;-78
2023/07/13 03:40:22;;;;;;;15.95;5.20;;;;;;;;;;5093619;28;20424;-78
2023/07/13 03:42:49;;;;;;;14.33;5.17;;;;;;;;;;5107383;28;20942;-78
2023/07/13 03:45:15;;;;;;;19.02;5.00;;;;;;;;;;5098823;28;20445;-77
2023/07/13 03:47:41;;;;;;;18.88;5.28;;;;;;;;;;5094872;28;20418;-77
2023/07/13 03:50:07;;;;;;;16.33;5.57;;;15.60;99.90;;;;;;5059857;28;20420;-77
2023/07/13 03:52:33;;;;;;;16.17;5.28;;;;;;;;;;5115393;28;20407;-78
2023/07/13 03:54:59;;;;;;;16.80;5.32;;;;;;;;;;5100991;28;20901;-77
2023/07/13 03:57:26;;;;;;;19.10;5.57;;;;;;;;;;5079770;28;20465;-77
2023/07/13 03:59:52;;;;;;;18.60;5.63;;;;;;;;;;5104426;28;20422;-78
2023/07/13 04:02:18;;;;;;;17.48;5.60;;;;;;;;;;5077090;28;20397;-77
2023/07/13 04:04:44;;;;;;;20.67;6.28;;;;;;;;;;5069543;28;20417;-78
2023/07/13 04:07:09;;;;;;;20.80;6.35;;;15.70;99.90;;;;;;5103551;28;20449;-77
2023/07/13 04:09:36;;;;;;;17.15;5.70;;;;;;;;;;5094198;28;20930;-78
2023/07/13 04:12:02;;;;;;;17.48;6.07;;;;;;;;;;5076336;28;20430;-78
2023/07/13 04:14:28;;;;;;;22.58;6.63;;;15.60;99.90;;;;;;5095919;28;20405;-78
2023/07/13 04:16:54;;;;;;;19.43;6.33;;;;;;;;;;5087219;28;20420;-78
2023/07/13 04:19:20;;;;;;;17.40;6.20;;;;;;;;;;5084163;28;20414;-78
2023/07/13 04:21:47;;;;;;;17.95;5.78;;;;;;;;;;5059323;28;20456;-78
2023/07/13 04:24:13;;;;;;;21.40;5.80;;;;;;;;;;5090167;28;20466;-78
2023/07/13 04:26:39;;;;;;;20.08;5.95;;;;;;;;;;5093564;28;20443;-78
2023/07/13 04:29:06;;;;;;;15.90;5.63;;;;;;;;;;5103497;28;20428;-78
2023/07/13 04:31:32;;;;;;;16.50;5.70;;;;;;;;;;5102669;28;20453;-77
2023/07/13 04:33:58;;;;;;;15.50;5.20;;;;;;;;;;5113364;28;20423;-78
2023/07/13 04:36:28;;;;;;;19.00;6.00;;;;;;;;;;5113851;28;20416;-79
2023/07/13 04:38:54;;;;;;;22.52;6.03;;;;;;;;;;5113762;28;20464;-78
2023/07/13 04:41:21;;;;;;;21.02;6.20;;;15.80;99.90;;;;;;5069087;28;20419;-79
2023/07/13 04:43:47;;;;;;;20.45;6.43;;;;;;;;;;5096021;28;20898;-79
2023/07/13 04:46:19;;;;;;;17.98;5.85;;;;;;;;;;5112927;28;20504;-79
2023/07/13 04:48:45;;;;;;;16.87;5.83;;;;;;;;;;5094702;28;20532;-79
2023/07/13 04:51:11;;;;;;;18.88;5.65;;;;;;;;;;5104677;28;20422;-80
2023/07/13 04:53:37;;;;;;;17.88;5.93;;;;;;;;;;5075039;28;20464;-80
2023/07/13 04:56:04;;;;;;;18.27;5.85;;;;;;;;;;5076008;28;20588;-79
2023/07/13 04:58:30;;;;;;;17.13;5.60;;;;;;;;;;5092109;28;20420;-79
2023/07/13 05:01:04;;;;;;;20.23;5.70;;;16.00;99.90;;;;;;5107187;28;20431;-79
2023/07/13 05:03:31;;;;;;;17.23;5.32;;;;;;;;;;5082258;28;20468;-78
2023/07/13 05:05:59;;;;;;;18.60;5.97;;;16.10;99.90;;;;;;5096130;28;20870;-80
2023/07/13 05:08:25;;;;;;;13.07;5.28;;;;;;;;;;5067070;28;20417;-80
2023/07/13 05:10:51;;;;;;;16.27;4.88;;;;;;;;;;5095113;28;20825;-80
2023/07/13 05:13:18;;;;;;;15.20;4.78;;;;;;;;;;5096707;28;20410;-79
2023/07/13 05:15:44;;;;;;;19.75;5.03;;;;;;;;;;5102376;28;20443;-77
2023/07/13 05:18:09;;;;;;;16.93;4.70;;;16.40;99.90;;;;;;5090972;28;20419;-78
2023/07/13 05:20:35;;;;;;;15.87;4.70;;;;;;;;;;5058909;28;20932;-76
2023/07/13 05:23:01;;;;;;;18.95;5.22;;;16.40;99.90;;;;;;5104995;28;20424;-77
2023/07/13 05:25:27;;;;;;;16.90;4.63;;;16.40;99.90;;;;;;5095500;28;20410;-77
2023/07/13 05:27:53;;;;;;;16.02;4.30;;;;;;;;;;5095400;28;20412;-78
2023/07/13 05:30:19;;;;;;;14.20;4.45;;;;;;;;;;5095401;28;20425;-77
2023/07/13 05:32:45;;;;;;;13.57;4.63;;;16.70;99.90;;;;;;5093422;28;20489;-77
2023/07/13 05:35:11;;;;;;;17.45;5.28;;;;;;;;;;5079067;28;20468;-77
2023/07/13 05:37:38;;;;;;;16.27;4.65;;;;;;;;;;5108557;28;20423;-77
2023/07/13 05:40:04;;;;;;;11.55;4.40;;;;;;;;;;5108810;28;20509;-76
2023/07/13 05:42:31;;;;;;;14.38;4.78;;;;;;;;;;5074365;28;20414;-77
2023/07/13 05:44:57;;;;;;;12.57;4.28;;;16.90;99.90;;;;;;5092377;28;20521;-77
2023/07/13 05:47:22;;;;;;;13.57;4.30;;;16.70;99.90;;;;;;5109986;28;20458;-77
2023/07/13 05:49:48;;;;;;;14.20;4.40;;;17.10;99.90;;;;;;5101038;28;20452;-77
2023/07/13 05:52:14;;;;;;;12.77;3.97;;;17.30;99.90;;;;;;5078064;28;20475;-77
2023/07/13 05:54:40;;;;;;;13.82;3.60;;;;;;;;;;5091331;28;20418;-77
2023/07/13 05:57:06;;;;;;;12.43;3.47;;;17.60;99.90;;;;;;5094340;28;20402;-77
2023/07/13 05:59:31;;;;;;;12.35;3.78;;;17.60;99.90;;;;;;5078696;28;20405;-77
2023/07/13 06:01:57;;;;;;;11.73;3.83;;;17.70;99.90;;;;;;5077169;28;20454;-77
2023/07/13 06:04:23;;;;;;;12.40;3.50;;;17.90;99.90;;;;;;5085900;28;20413;-77
2023/07/13 06:06:48;;;;;;;16.15;4.25;;;18.20;99.90;;;;;;5078537;28;20464;-77
2023/07/13 06:09:14;;;;;;;15.43;3.95;;;18.20;99.90;;;;;;5061013;28;20433;-78
2023/07/13 06:11:40;;;;;;;10.68;3.35;;;18.30;99.90;;;;;;5081863;28;20417;-77
2023/07/13 06:14:05;;;;;;;10.80;3.60;;;18.30;99.90;;;;;;5087551;28;20416;-77
2023/07/13 06:16:31;;;;;;;10.88;3.75;;;18.40;99.90;;;;;;5068829;28;20421;-77
2023/07/13 06:18:57;;;;;;;11.07;3.13;;;18.50;99.90;;;;;;5098900;28;20989;-77
2023/07/13 06:21:23;;;;;;;10.80;3.50;;;18.60;99.90;;;;;;5106629;28;20420;-76
2023/07/13 06:23:51;;;;;;;13.55;3.97;;;18.70;99.90;;;;;;5100607;28;20543;-76
2023/07/13 06:26:20;;;;;;;11.75;3.75;;;18.70;99.90;;;;;;5061415;28;20421;-76
2023/07/13 06:28:46;;;;;;;8.55;3.00;;;18.80;99.90;;;;;;5100475;28;20421;-76
2023/07/13 06:31:13;;;;;;;11.85;3.35;;;18.70;99.90;;;;;;5071515;28;20426;-77
2023/07/13 06:33:39;;;;;;;10.50;3.10;;;19.10;99.90;;;;;;5067019;28;20546;-77
2023/07/13 06:36:06;;;;;;;9.43;2.93;;;19.10;99.90;;;;;;5077031;28;20523;-77
2023/07/13 06:38:32;;;;;;;9.27;2.73;;;19.00;99.90;;;;;;5065496;28;20520;-77
2023/07/13 06:40:58;;;;;;;13.10;3.00;;;19.00;99.90;;;;;;5084629;28;20421;-77
2023/07/13 06:43:28;;;;;;;10.13;3.13;;;19.30;99.90;;;;;;5076903;28;20407;-77
2023/07/13 06:45:55;;;;;;;14.35;3.30;;;19.40;99.90;;;;;;5060280;28;20422;-76
2023/07/13 06:48:21;;;;;;;7.95;2.90;;;19.60;99.90;;;;;;5096339;28;20439;-77
2023/07/13 06:50:49;;;;;;;9.43;2.90;;;20.00;99.90;;;;;;5096773;28;20437;-77
2023/07/13 06:53:15;;;;;;;7.65;2.60;;;19.60;99.90;;;;;;5083995;28;21083;-78
2023/07/13 06:55:43;;;;;;;8.95;3.03;;;19.50;99.90;;;;;;5062791;28;20426;-77
2023/07/13 06:58:09;;;;;;;7.80;2.88;;;19.30;99.90;;;;;;5091793;28;20406;-77
2023/07/13 07:00:35;;;;;;;6.33;2.40;;;19.30;99.90;;;;;;5098424;28;20429;-77
2023/07/13 07:03:00;;;;;;;11.25;2.50;;;19.20;99.90;;;;;;5076474;28;20415;-77
2023/07/13 07:05:26;;;;;;;6.50;2.42;;;19.00;99.90;;;;;;5062952;28;20501;-76
2023/07/13 07:07:53;;;;;;;8.70;2.60;;;19.10;99.90;;;;;;5067036;28;20493;-77
2023/07/13 07:10:20;;;;;;;7.07;2.50;;;19.30;99.90;;;;;;5095921;28;22124;-77
2023/07/13 07:12:45;;;;;;;8.15;2.50;;;19.30;99.90;;;;;;5092590;28;20393;-77
2023/07/13 07:15:12;;;;;;;7.47;2.65;;;19.40;99.90;;;;;;5092925;28;20951;-77
2023/07/13 07:17:38;;;;;;;10.07;2.90;;;19.40;99.90;;;;;;5100745;28;20410;-77
2023/07/13 07:20:04;;;;;;;9.85;2.95;;;19.30;99.90;;;;;;5072029;28;20453;-77
2023/07/13 07:22:30;;;;;;;9.98;2.90;;;20.00;99.90;;;;;;5115724;27;20810;-77
2023/07/13 07:24:57;;;;;;;8.50;2.90;;;20.10;99.90;;;;;;5089847;28;20420;-77
2023/07/13 07:27:24;;;;;;;8.13;2.60;;;20.10;99.90;;;;;;5110387;28;20887;-78
2023/07/13 07:29:49;;;;;;;8.80;2.55;;;20.40;99.90;;;;;;5096336;28;20396;-78
2023/07/13 07:32:15;;;;;;;9.55;2.80;;;20.40;99.90;;;;;;5101651;28;20464;-77
2023/07/13 07:34:41;;;;;;;9.82;3.22;;;20.40;99.90;;;;;;5073637;28;20864;-77
2023/07/13 07:37:11;;;;;;;6.55;2.10;;;20.20;99.90;;;;;;5081914;28;20422;-77
2023/07/13 07:39:37;;;;;;;5.63;2.20;;;20.50;99.90;;;;;;5095555;28;20503;-77
2023/07/13 07:42:03;;;;;;;6.50;2.10;;;20.30;99.90;;;;;;5097820;28;20415;-78
2023/07/13 07:44:31;;;;;;;6.57;1.73;;;20.00;99.90;;;;;;5083256;28;20409;-78
2023/07/13 07:46:56;;;;;;;5.37;1.63;;;20.10;99.90;;;;;;5099530;28;20480;-78
2023/07/13 07:49:22;;;;;;;4.93;1.73;;;20.40;99.90;;;;;;5083826;28;20974;-77
2023/07/13 07:51:48;;;;;;;5.40;1.73;;;20.30;99.90;;;;;;5101921;28;20501;-77
2023/07/13 07:54:14;;;;;;;5.13;1.85;;;20.40;99.90;;;;;;5084394;28;20430;-77
2023/07/13 07:56:40;;;;;;;5.38;1.67;;;20.50;99.90;;;;;;5083212;28;20938;-77
2023/07/13 07:59:06;;;;;;;11.23;2.40;;;20.00;99.90;;;;;;5101469;28;20414;-77
2023/07/13 08:01:32;;;;;;;14.85;2.67;;;20.60;99.90;;;;;;5099742;28;20428;-77
2023/07/13 08:03:57;;;;;;;6.13;1.60;;;20.50;99.90;;;;;;5102321;28;20412;-77
2023/07/13 08:06:23;;;;;;;8.27;2.25;;;20.50;99.90;;;;;;5069565;28;20909;-77
2023/07/13 08:08:49;;;;;;;5.20;1.73;;;20.50;99.90;;;;;;5082348;28;20416;-77
2023/07/13 08:11:16;;;;;;;4.47;1.70;;;20.80;99.90;;;;;;5095463;28;20417;-77
2023/07/13 08:13:42;;;;;;;7.07;2.20;;;21.00;99.90;;;;;;5104033;28;20408;-77
2023/07/13 08:16:07;;;;;;;7.87;2.00;;;20.70;99.90;;;;;;5090369;28;20421;-77
2023/07/13 08:18:33;;;;;;;4.33;1.87;;;20.70;99.90;;;;;;5104505;28;20959;-77
2023/07/13 08:21:05;;;;;;;4.90;1.70;;;20.80;99.90;;;;;;5076968;28;20424;-77
2023/07/13 08:23:32;;;;;;;4.28;1.60;;;20.80;99.90;;;;;;5067952;28;20429;-77
2023/07/13 08:25:58;;;;;;;4.43;1.67;;;21.00;99.90;;;;;;5102403;28;20400;-77
2023/07/13 08:28:24;;;;;;;6.13;1.87;;;20.60;99.90;;;;;;5093304;28;20409;-77
2023/07/13 08:30:50;;;;;;;4.40;1.90;;;20.30;99.90;;;;;;5098353;28;20416;-76
2023/07/13 08:33:21;;;;;;;8.80;2.22;;;20.50;99.90;;;;;;5099781;28;20404;-77
2023/07/13 08:35:48;;;;;;;4.50;1.87;;;20.90;99.90;;;;;;5107296;28;20410;-77
2023/07/13 08:38:14;;;;;;;6.78;1.95;;;20.60;99.90;;;;;;5070347;28;20410;-77
2023/07/13 08:40:41;;;;;;;6.95;2.00;;;20.90;99.90;;;;;;5064647;28;20472;-78
2023/07/13 08:43:13;;;;;;;4.35;2.15;;;20.60;99.90;;;;;;5079137;28;20414;-77
2023/07/13 08:46:05;;;;;;;4.30;1.80;;;20.80;99.90;;;;;;5108054;28;20430;-78
2023/07/13 08:48:35;;;;;;;6.50;2.10;;;20.90;99.90;;;;;;5098045;28;20409;-78
2023/07/13 08:51:27;;;;;;;6.32;1.98;;;21.00;99.90;;;;;;5070350;28;20420;-77
2023/07/13 08:53:57;;;;;;;5.75;2.03;;;20.70;99.90;;;;;;5084615;28;20424;-77
2023/07/13 08:56:26;;;;;;;5.68;2.22;;;20.70;99.90;;;;;;5081707;28;21250;-77
2023/07/13 08:58:56;;;;;;;5.05;1.95;;;21.00;99.90;;;;;;5082926;28;20417;-77
2023/07/13 09:01:58;;;;;;;6.32;1.90;;;21.20;99.90;;;;;;5064238;28;20487;-77
2023/07/13 09:04:48;;;;;;;7.32;2.40;;;21.60;99.90;;;;;;5105251;28;20408;-77
2023/07/13 09:07:18;;;;;;;5.23;1.97;;;21.80;99.90;;;;;;5080574;28;22287;-76
2023/07/13 09:10:03;;;;;;;6.03;1.95;;;21.60;99.90;;;;;;5079827;28;20416;-76
2023/07/13 09:12:54;;;;;;;5.30;2.00;;;21.60;99.90;;;;;;5083700;28;20420;-77
2023/07/13 09:15:34;;;;;;;4.68;2.00;;;21.60;99.90;;;;;;5099309;28;20410;-77
2023/07/13 09:18:05;;;;;;;7.10;2.20;;;21.80;99.90;;;;;;5102011;27;20417;-77
2023/07/13 09:20:37;;;;;;;4.82;1.92;;;21.50;99.90;;;;;;5103392;28;20505;-76
2023/07/13 09:23:06;;;;;;;6.88;2.75;;;21.30;99.90;;;;;;5100139;28;20415;-78
2023/07/13 09:25:35;;;;;;;10.55;2.75;;;21.20;99.90;;;;;;5067051;28;20420;-77
2023/07/13 09:28:33;;;;;;;12.18;2.70;;;20.70;99.90;;;;;;5076147;28;20876;-77
2023/07/13 09:31:15;;;;;;;8.90;3.50;;;20.50;99.90;;;;;;5060791;28;20430;-78
2023/07/13 09:33:42;;;;;;;9.35;3.00;;;20.10;99.90;;;;;;5071848;28;20427;-78
2023/07/13 09:36:23;;;;;;;6.65;3.35;;;20.10;99.90;;;;;;5066310;28;20428;-78
2023/07/13 09:39:12;;;;;;;10.50;3.78;;;19.80;99.90;;;;;;5082417;28;20451;-77
2023/07/13 09:41:44;;;;;;;9.55;3.72;;;19.70;99.90;;;;;;5079406;28;20424;-77
2023/07/13 09:44:30;;;;;;;7.88;3.80;;;19.80;99.90;;;;;;5099560;28;20424;-77
2023/07/13 09:46:58;;;;;;;6.03;2.93;;;19.70;99.90;;;;;;5061195;28;20519;-77
2023/07/13 09:49:26;;;;;;;8.48;3.17;;;20.00;99.90;;;;;;5099666;28;20420;-77
2023/07/13 09:52:00;;;;;;;6.38;2.47;;;19.50;99.90;;;;;;5079007;28;20766;-77
2023/07/13 09:54:26;;;;;;;5.95;2.50;;;19.70;99.90;;;;;;5077970;28;20862;-76
2023/07/13 09:56:59;;;;;;;7.63;2.60;;;19.50;99.90;;;;;;5098451;28;20512;-77
2023/07/13 09:59:39;;;;;;;6.60;2.50;;;19.70;99.90;;;;;;5076338;28;22249;-77
2023/07/13 10:02:22;;;;;;;5.43;2.40;;;19.60;99.90;;;;;;5103536;28;20555;-76
2023/07/13 10:05:03;;;;;;;5.32;2.30;;;20.30;99.90;;;;;;5070539;28;20516;-75
2023/07/13 10:07:30;;;;;;;5.78;2.38;;;20.60;99.90;;;;;;5097113;28;20417;-77
2023/07/13 10:09:58;;;;;;;6.63;2.33;;;20.60;99.90;;;;;;5095878;28;20475;-76
2023/07/13 10:12:25;;;;;;;7.65;2.00;;;20.60;99.90;;;;;;5081236;28;20412;-77
2023/07/13 10:14:57;;;;;;;7.53;2.13;;;20.60;99.90;;;;;;5097270;27;20408;-76
2023/07/13 10:17:41;;;;;;;4.85;1.65;;;20.80;99.90;;;;;;5070988;28;20423;-76
2023/07/13 10:20:12;;;;;;;3.80;1.67;;;20.80;99.90;;;;;;5090210;28;21064;-76
2023/07/13 10:22:43;;;;;;;3.92;1.65;;;21.10;99.90;;;;;;5097892;28;20413;-76
2023/07/13 10:25:19;;;;;;;4.82;1.67;;;21.30;99.90;;;;;;5093715;28;20414;-77
2023/07/13 10:27:47;;;;;;;3.00;1.70;;;21.40;99.90;;;;;;5074416;28;20417;-77
2023/07/13 10:30:22;;;;;;;3.40;1.48;;;21.00;99.90;;;;;;5074440;28;20479;-76
2023/07/13 10:32:50;;;;;;;5.50;1.63;;;21.30;99.90;;;;;;5063665;28;20408;-77
2023/07/13 10:35:19;;;;;;;5.43;1.60;;;21.10;99.90;;;;;;5059074;28;20401;-77
2023/07/13 10:38:06;;;;;;;3.47;1.40;;;21.40;99.90;;;;;;5092550;28;20459;-77
2023/07/13 10:40:41;;;;;;;3.78;1.70;;;21.60;99.90;;;;;;5087011;28;20501;-77
2023/07/13 10:43:20;;;;;;;4.75;1.80;;;21.70;99.90;;;;;;5107614;28;20489;-76
2023/07/13 10:45:49;;;;;;;3.23;1.50;;;22.00;99.90;;;;;;5089250;28;20421;-76
2023/07/13 10:48:16;;;;;;;3.25;1.52;;;21.90;99.90;;;;;;5087975;28;20441;-76
2023/07/13 10:50:47;;;;;;;5.38;1.67;;;21.60;99.90;;;;;;5082774;28;20422;-76
2023/07/13 10:53:28;;;;;;;4.75;1.70;;;21.80;99.90;;;;;;5079541;28;20936;-77
2023/07/13 10:55:59;;;;;;;4.43;1.95;;;21.80;99.90;;;;;;5093826;28;20448;-76
2023/07/13 10:58:31;;;;;;;3.72;1.63;;;22.30;99.90;;;;;;5096330;28;20421;-76
2023/07/13 11:01:06;;;;;;;3.58;1.80;;;22.10;99.90;;;;;;5098393;28;20437;-76
2023/07/13 11:03:47;;;;;;;4.47;1.90;;;22.30;99.90;;;;;;5098481;28;20980;-75
2023/07/13 11:06:24;;;;;;;4.72;1.70;;;22.10;99.90;;;;;;5107961;28;20961;-76
2023/07/13 11:08:56;;;;;;;4.43;1.70;;;22.10;99.90;;;;;;5084361;28;20410;-77
2023/07/13 11:11:25;;;;;;;4.00;1.60;;;22.00;99.90;;;;;;5076040;28;20467;-76
2023/07/13 11:13:50;;;;;;;5.30;1.83;;;22.00;99.90;;;;;;5063445;28;20942;-77
2023/07/13 11:16:22;;;;;;;3.72;1.48;;;22.10;99.90;;;;;;5103996;28;20415;-78
2023/07/13 11:19:08;;;;;;;3.85;1.50;;;22.30;99.90;;;;;;5063374;28;20433;-77
2023/07/13 11:21:34;;;;;;;4.60;1.70;;;22.50;99.90;;;;;;5047219;28;20424;-76
2023/07/13 11:24:03;;;;;;;5.40;1.60;;;22.40;99.90;;;;;;5068424;28;20431;-76
2023/07/13 11:26:47;;;;;;;4.85;1.60;;;22.60;99.90;;;;;;5101800;28;20414;-77
2023/07/13 11:29:32;;;;;;;4.40;1.67;;;22.40;99.90;;;;;;5094565;28;20422;-77
2023/07/13 11:32:26;;;;;;;6.35;1.80;;;22.40;99.90;;;;;;5097272;28;20492;-76
2023/07/13 11:34:54;;;;;;;5.90;2.10;;;22.40;99.90;;;;;;5097662;28;20764;-76
2023/07/13 11:37:21;;;;;;;3.58;1.50;;;22.00;99.90;;;;;;5078262;28;20966;-77
2023/07/13 11:39:49;;;;;;;6.75;1.90;;;21.90;99.90;;;;;;5075011;28;20429;-76
2023/07/13 11:42:18;;;;;;;3.42;1.70;;;22.10;99.90;;;;;;5101086;28;20754;-76
2023/07/13 11:44:49;;;;;;;3.83;1.60;;;22.20;99.90;;;;;;5068862;28;20962;-76
2023/07/13 11:47:22;;;;;;;4.75;1.77;;;22.40;99.90;;;;;;5087222;28;20848;-76
2023/07/13 11:49:55;;;;;;;5.38;1.70;;;22.70;99.90;;;;;;5076134;28;20488;-76
2023/07/13 11:52:34;;;;;;;5.22;1.70;;;22.80;99.90;;;;;;5096306;28;20418;-75
2023/07/13 11:55:02;;;;;;;5.60;1.70;;;22.80;99.90;;;;;;5084877;28;20462;-75
2023/07/13 11:57:44;;;;;;;5.57;1.65;;;22.60;99.90;;;;;;5081034;28;20507;-75
2023/07/13 12:00:15;;;;;;;3.80;1.50;;;22.40;99.90;;;;;;5076013;28;20429;-75
2023/07/13 12:02:48;;;;;;;6.37;1.70;;;22.30;99.90;;;;;;5089506;28;20420;-75
2023/07/13 12:05:20;;;;;;;3.72;1.67;;;22.20;99.90;;;;;;5096452;28;20474;-76
2023/07/13 12:07:46;;;;;;;4.60;1.65;;;22.50;99.90;;;;;;5099628;28;20500;-77
2023/07/13 12:10:25;;;;;;;5.15;1.70;;;22.90;99.90;;;;;;5087882;28;20507;-75
2023/07/13 12:12:55;;;;;;;4.40;1.58;;;23.30;99.90;;;;;;5107828;28;20504;-75
2023/07/13 12:15:23;;;;;;;5.22;2.10;;;23.70;99.50;;;;;;5103924;27;20485;-76
2023/07/13 12:17:49;;;;;;;6.43;1.83;;;23.90;99.90;;;;;;5098918;28;20495;-75
2023/07/13 12:20:25;;;;;;;4.82;1.70;;;23.90;99.70;;;;;;5115151;27;20557;-75
2023/07/13 12:22:52;;;;;;;4.53;1.77;;;23.70;99.90;;;;;;5080679;28;20418;-75
2023/07/13 12:25:20;;;;;;;5.00;1.75;;;23.30;99.90;;;;;;5099482;28;20516;-75
2023/07/13 12:27:50;;;;;;;4.28;1.52;;;22.90;99.90;;;;;;5080714;28;20454;-74
2023/07/13 12:30:26;;;;;;;5.28;1.98;;;22.90;99.90;;;;;;5109972;27;20435;-75
2023/07/13 12:33:12;;;;;;;3.60;1.70;;;22.70;99.90;;;;;;5092790;28;20420;-76
2023/07/13 12:35:48;;;;;;;5.40;1.90;;;22.70;99.90;;;;;;5092520;28;20838;-76
2023/07/13 12:38:15;;;;;;;5.80;1.65;;;22.30;99.90;;;;;;5082713;28;20428;-76
2023/07/13 12:40:41;;;;;;;4.93;1.80;;;22.20;99.90;;;;;;5085345;28;20424;-75
2023/07/13 12:43:13;;;;;;;6.22;2.03;;;22.50;99.90;;;;;;5099548;28;20413;-74
2023/07/13 12:45:39;;;;;;;3.87;1.50;;;22.40;99.90;;;;;;5108852;27;20510;-74
2023/07/13 12:48:14;;;;;;;4.07;1.47;;;22.60;99.90;;;;;;5107539;28;20416;-75
2023/07/13 12:50:42;;;;;;;6.00;1.67;;;22.70;99.90;;;;;;5104209;28;20428;-74
2023/07/13 12:53:30;;;;;;;4.18;1.50;;;22.80;99.90;;;;;;5082622;28;20424;-74
2023/07/13 12:56:01;;;;;;;4.00;1.55;;;23.20;99.90;;;;;;5087252;28;20961;-75
2023/07/13 12:58:30;;;;;;;4.82;1.50;;;23.00;99.90;;;;;;5109422;28;20463;-74
2023/07/13 13:01:02;;;;;;;3.50;1.50;;;23.00;99.90;;;;;;5107076;27;20424;-76
2023/07/13 13:03:36;;;;;;;3.90;1.40;;;23.10;99.90;;;;;;5106343;27;20483;-76
2023/07/13 13:06:18;;;;;;;3.65;1.40;;;23.30;99.90;;;;;;5095568;28;20481;-76
2023/07/13 13:08:49;;;;;;;5.57;1.50;;;23.50;99.90;;;;;;5095207;28;20426;-76
2023/07/13 13:11:16;;;;;;;6.65;1.98;;;23.70;99.80;;;;;;5079180;28;20509;-76
2023/07/13 13:13:42;;;;;;;3.53;1.50;;;23.30;99.70;;;;;;5058660;28;20493;-74
2023/07/13 13:16:19;;;;;;;4.00;1.55;;;23.00;99.90;;;;;;5102803;28;20785;-76
2023/07/13 13:18:45;;;;;;;4.88;1.42;;;22.90;99.90;;;;;;5094179;28;20419;-77
2023/07/13 13:21:11;;;;;;;5.07;1.60;;;22.90;99.90;;;;;;5065461;28;21043;-76
2023/07/13 13:23:37;;;;;;;4.25;1.63;;;22.80;99.90;;;;;;5097547;27;20501;-76
2023/07/13 13:26:08;;;;;;;4.10;1.50;;;23.20;99.90;;;;;;5102732;27;20406;-76